createdAt,value
2023-01-08T00:00:52.131Z,38.24
2023-01-08T00:06:18.302Z,37.96
2023-01-08T00:11:40.135Z,37.94
2023-01-08T00:17:02.994Z,38.35
2023-01-08T00:22:24.941Z,38.41
2023-01-08T00:27:46.778Z,38.02
2023-01-08T00:33:08.674Z,38.24
2023-01-08T00:38:30.392Z,38.08
2023-01-08T00:43:52.135Z,38.48
2023-01-08T00:49:13.844Z,38.12
2023-01-08T00:54:35.546Z,38.08
2023-01-08T00:59:57.291Z,38.22
2023-01-08T01:05:19.055Z,38.16
2023-01-08T01:10:40.813Z,38.29
2023-01-08T01:16:03.677Z,38.36
2023-01-08T01:21:30.860Z,38.63
2023-01-08T01:26:52.589Z,38.64
2023-01-08T01:32:14.431Z,38.31
2023-01-08T01:37:36.341Z,38.53
2023-01-08T01:42:58.052Z,38.38
2023-01-08T01:48:19.764Z,38.46
2023-01-08T01:53:42.082Z,38.36
2023-01-08T01:59:04.779Z,38.23
2023-01-08T02:04:26.628Z,38.67
2023-01-08T02:09:52.725Z,38.47
2023-01-08T02:15:43.593Z,38.42
2023-01-08T02:21:11.270Z,38.53
2023-01-08T02:26:35.169Z,38.63
2023-01-08T02:31:57.066Z,38.69
2023-01-08T02:37:19.310Z,38.29
2023-01-08T02:42:47.962Z,38.72
2023-01-08T02:48:14.057Z,38.52
2023-01-08T02:53:43.247Z,38.33
2023-01-08T02:59:07.884Z,38.62
2023-01-08T03:04:34.803Z,38.52
2023-01-08T03:09:56.743Z,38.41
2023-01-08T03:15:42.969Z,38.72
2023-01-08T03:21:06.967Z,38.59
2023-01-08T03:26:32.313Z,38.85
2023-01-08T03:31:59.386Z,38.49
2023-01-08T03:37:27.337Z,38.80
2023-01-08T03:42:49.265Z,38.89
2023-01-08T03:48:11.538Z,38.43
2023-01-08T03:53:33.295Z,38.73
2023-01-08T03:58:54.979Z,38.77
2023-01-08T04:04:17.284Z,38.60
2023-01-08T04:09:39.120Z,38.44
2023-01-08T04:15:00.907Z,38.90
2023-01-08T04:20:22.654Z,38.86
2023-01-08T04:25:44.402Z,38.54
2023-01-08T04:31:10.342Z,38.59
2023-01-08T04:36:32.242Z,38.79
2023-01-08T04:41:53.916Z,38.81
2023-01-08T04:47:15.678Z,39.05
2023-01-08T04:52:37.485Z,38.76
2023-01-08T04:57:59.226Z,38.95
2023-01-08T05:03:21.050Z,38.58
2023-01-08T05:08:42.879Z,38.63
2023-01-08T05:14:04.695Z,38.72
2023-01-08T05:19:26.439Z,38.92
2023-01-08T05:24:48.135Z,38.86
2023-01-08T05:30:10.462Z,38.80
2023-01-08T05:35:32.245Z,38.62
2023-01-08T05:40:54.448Z,38.93
2023-01-08T05:46:16.193Z,39.06
2023-01-08T05:51:37.934Z,38.64
2023-01-08T05:56:59.634Z,38.79
2023-01-08T06:02:21.406Z,39.02
2023-01-08T06:07:43.161Z,38.71
2023-01-08T06:13:09.059Z,38.92
2023-01-08T06:18:31.391Z,39.14
2023-01-08T06:23:53.054Z,38.73
2023-01-08T06:29:14.837Z,38.52
2023-01-08T06:34:36.508Z,38.86
2023-01-08T06:39:58.245Z,38.92
2023-01-08T06:45:20.176Z,38.75
2023-01-08T06:50:41.911Z,38.27
2023-01-08T06:56:04.894Z,37.92
2023-01-08T07:01:26.713Z,37.61
2023-01-08T07:06:48.892Z,37.63
2023-01-08T07:12:14.068Z,37.31
2023-01-08T07:17:35.853Z,37.31
2023-01-08T07:23:05.111Z,37.65
2023-01-08T07:28:26.899Z,37.74
2023-01-08T07:33:48.698Z,37.48
2023-01-08T07:39:10.439Z,37.87
2023-01-08T07:44:32.167Z,37.50
2023-01-08T07:49:53.906Z,38.03
2023-01-08T07:55:15.809Z,37.77
2023-01-08T08:00:37.675Z,37.48
2023-01-08T08:06:01.393Z,37.51
2023-01-08T08:11:23.202Z,37.51
2023-01-08T08:16:44.973Z,37.69
2023-01-08T08:22:06.788Z,38.04
2023-01-08T08:27:28.532Z,37.67
2023-01-08T08:32:50.507Z,38.10
2023-01-08T08:38:12.395Z,37.94
2023-01-08T08:43:34.200Z,37.84
2023-01-08T08:48:55.904Z,38.42
2023-01-08T08:54:17.620Z,38.49
2023-01-08T08:59:39.497Z,38.43
2023-01-08T09:05:01.265Z,38.32
2023-01-08T09:10:23.698Z,38.21
2023-01-08T09:21:08.851Z,38.60
2023-01-08T09:26:30.869Z,38.52
2023-01-08T09:31:52.981Z,38.65
2023-01-08T09:37:14.845Z,38.49
2023-01-08T09:42:36.870Z,38.48
2023-01-08T09:48:02.388Z,38.89
2023-01-08T09:53:24.981Z,38.99
2023-01-08T09:58:50.908Z,38.59
2023-01-08T10:04:24.555Z,38.37
2023-01-08T10:09:46.320Z,38.74
2023-01-08T10:15:14.681Z,38.41
2023-01-08T10:20:36.546Z,38.38
2023-01-08T10:26:00.937Z,38.44
2023-01-08T10:31:22.859Z,37.99
2023-01-08T10:36:44.817Z,37.93
2023-01-08T10:42:07.389Z,37.87
2023-01-08T10:47:34.444Z,37.97
2023-01-08T10:53:01.357Z,38.28
2023-01-08T10:58:23.080Z,38.34
2023-01-08T11:03:50.454Z,38.02
2023-01-08T11:09:26.351Z,38.29
2023-01-08T11:14:49.154Z,38.49
2023-01-08T11:20:30.860Z,38.02
2023-01-08T11:25:56.605Z,38.10
2023-01-08T11:31:25.859Z,38.44
2023-01-08T11:36:54.782Z,38.56
2023-01-08T11:42:16.439Z,38.33
2023-01-08T11:47:59.853Z,38.52
2023-01-08T11:53:27.703Z,38.56
2023-01-08T11:59:04.399Z,38.70
2023-01-08T12:04:43.239Z,39.02
2023-01-08T12:11:02.547Z,38.98
2023-01-08T12:16:30.190Z,38.74
2023-01-08T12:22:05.008Z,38.82
2023-01-08T12:27:56.311Z,38.40
2023-01-08T12:33:48.492Z,38.36
2023-01-08T12:39:14.199Z,38.10
2023-01-08T12:44:38.191Z,37.77
2023-01-08T12:50:17.254Z,37.61
2023-01-08T12:55:55.548Z,37.98
2023-01-08T13:01:26.160Z,37.95
2023-01-08T13:06:56.865Z,37.75
2023-01-08T13:12:31.911Z,37.71
2023-01-08T13:18:03.669Z,37.43
2023-01-08T13:23:31.040Z,37.16
2023-01-08T13:28:52.809Z,37.12
2023-01-08T13:34:37.553Z,37.08
2023-01-08T13:39:59.238Z,37.50
2023-01-08T13:45:21.052Z,37.03
2023-01-08T13:50:46.761Z,36.76
2023-01-08T13:56:09.934Z,36.85
2023-01-08T14:01:32.058Z,36.78
2023-01-08T14:06:54.236Z,36.58
2023-01-08T14:12:22.257Z,36.21
2023-01-08T14:17:45.163Z,36.06
2023-01-08T14:23:20.932Z,36.18
2023-01-08T14:28:51.425Z,36.04
2023-01-08T14:34:14.678Z,36.21
2023-01-08T14:39:38.584Z,35.98
2023-01-08T14:45:16.545Z,35.58
2023-01-08T14:50:44.230Z,35.52
2023-01-08T14:56:07.469Z,35.78
2023-01-08T15:01:33.583Z,35.62
2023-01-08T15:07:22.970Z,35.86
2023-01-08T15:12:44.716Z,35.71
2023-01-08T15:18:08.742Z,35.94
2023-01-08T15:23:51.779Z,35.96
2023-01-08T15:29:18.547Z,35.84
2023-01-08T15:34:45.232Z,35.79
2023-01-08T15:40:09.220Z,36.16
2023-01-08T15:45:34.461Z,36.23
2023-01-08T15:50:58.249Z,36.13
2023-01-08T15:56:20.392Z,36.03
2023-01-08T16:01:42.447Z,36.09
2023-01-08T16:07:04.198Z,36.16
2023-01-08T16:12:25.921Z,36.12
2023-01-08T16:17:47.751Z,36.43
2023-01-08T16:23:09.510Z,36.13
2023-01-08T16:28:31.182Z,35.83
2023-01-08T16:33:52.848Z,35.94
2023-01-08T16:39:14.706Z,35.61
2023-01-08T16:44:37.150Z,35.77
2023-01-08T16:49:58.902Z,35.38
2023-01-08T16:55:20.635Z,35.60
2023-01-08T17:00:42.394Z,35.63
2023-01-08T17:06:06.477Z,35.72
2023-01-08T17:11:28.152Z,35.87
2023-01-08T17:16:49.851Z,35.56
2023-01-08T17:22:11.696Z,35.95
2023-01-08T17:27:36.612Z,35.97
2023-01-08T17:32:58.313Z,36.37
2023-01-08T17:38:20.239Z,36.41
2023-01-08T17:43:41.970Z,36.75
2023-01-08T17:49:04.443Z,36.96
2023-01-08T17:54:26.253Z,36.99
2023-01-08T17:59:49.154Z,36.96
2023-01-08T18:05:10.963Z,36.89
2023-01-08T18:10:32.669Z,36.78
2023-01-08T18:15:54.446Z,37.18
2023-01-08T18:21:16.328Z,36.96
2023-01-08T18:26:38.389Z,37.82
2023-01-08T18:32:00.404Z,37.79
2023-01-08T18:37:23.389Z,37.48
2023-01-08T18:42:47.659Z,37.57
2023-01-08T18:48:09.740Z,37.67
2023-01-08T18:53:35.156Z,37.52
2023-01-08T18:58:57.247Z,37.64
2023-01-08T19:04:19.132Z,37.21
2023-01-08T19:09:40.827Z,37.52
2023-01-08T19:15:02.659Z,37.70
2023-01-08T19:20:24.370Z,37.61
2023-01-08T19:25:46.211Z,37.78
2023-01-08T19:31:12.257Z,37.62
2023-01-08T19:36:34.516Z,37.72
2023-01-08T19:42:16.131Z,37.52
2023-01-08T19:47:37.885Z,37.57
2023-01-08T19:53:00.309Z,37.66
2023-01-08T19:58:23.520Z,37.74
2023-01-08T20:03:45.575Z,38.01
2023-01-08T20:09:09.193Z,37.88
2023-01-08T20:14:31.515Z,38.00
2023-01-08T20:19:53.249Z,37.35
2023-01-08T20:25:15.092Z,37.38
2023-01-08T20:30:36.751Z,37.35
2023-01-08T20:35:58.471Z,37.40
2023-01-08T20:41:20.691Z,37.17
2023-01-08T20:46:42.941Z,36.82
2023-01-08T20:52:04.822Z,37.01
2023-01-08T20:57:28.304Z,36.81
2023-01-08T21:02:50.254Z,36.62
2023-01-08T21:08:12.094Z,36.91
2023-01-08T21:13:34.549Z,36.73
2023-01-08T21:18:58.258Z,37.17
2023-01-08T21:24:20.484Z,36.91
2023-01-08T21:29:42.150Z,36.70
2023-01-08T21:35:04.028Z,36.78
2023-01-08T21:40:25.948Z,36.70
2023-01-08T21:45:57.608Z,36.80
2023-01-08T21:51:38.248Z,37.35
2023-01-08T21:56:59.946Z,37.30
2023-01-08T22:02:24.367Z,37.58
2023-01-08T22:07:46.184Z,37.55
2023-01-08T22:13:07.932Z,37.56
2023-01-08T22:18:29.819Z,37.40
2023-01-08T22:23:51.597Z,37.75
2023-01-08T22:29:13.405Z,37.99
2023-01-08T22:34:35.748Z,37.63
2023-01-08T22:39:57.481Z,37.95
2023-01-08T22:45:19.265Z,37.84
2023-01-08T22:50:40.965Z,38.13
2023-01-08T22:56:12.128Z,38.49
2023-01-08T23:01:33.960Z,38.48
2023-01-08T23:06:55.680Z,38.36
2023-01-08T23:12:17.421Z,38.26
2023-01-08T23:17:51.474Z,38.35
2023-01-08T23:23:14.069Z,38.65
2023-01-08T23:28:36.141Z,38.45
2023-01-08T23:33:58.568Z,38.40
2023-01-08T23:39:20.384Z,38.35
2023-01-08T23:44:42.471Z,38.76
2023-01-08T23:50:04.657Z,38.38
2023-01-08T23:55:26.409Z,38.56
